Time;durP1;ratioP1;P1;durP2;ratioP2;P2;SDS_P1;SDS_P2;PMS_P1;PMS_P2;Temp;Humidity;BMP_temperature;BMP_pressure;BME280_temperature;BME280_humidity;BME280_pressure;Samples;Min_cycle;Max_cycle;Signal;HPM_P1;HPM_P2
2024/01/08 00:00:54;;;;;;;;;;;;;;;-1.17;88.57;100839.77;106553;1253;67095;-84
2024/01/08 00:03:28;;;;;;;;;;;;;;;-1.27;86.63;100845.48;106176;1255;73629;-79
2024/01/08 00:05:56;;;;;;;;;;;;;;;-1.30;84.00;100846.23;106261;1255;60391;-83
2024/01/08 00:08:31;;;;;;;;;;;;;;;-1.20;83.14;100845.21;106381;1254;60541;-83
2024/01/08 00:11:05;;;;;;;;;;;;;;;-1.12;79.31;100848.09;106312;1254;72600;-79
2024/01/08 00:13:39;;;;;;;;;;;;;;;-1.05;78.74;100841.89;106313;1254;68639;-78
2024/01/08 00:16:13;;;;;;;;;;;;;;;-1.08;78.31;100842.42;106768;1253;72720;-78
2024/01/08 00:18:45;;;;;;;;;;;;;;;-1.01;75.96;100835.19;106376;1259;61447;-83
2024/01/08 00:21:19;;;;;;;;;;;;;;;-0.94;75.00;100833.64;106313;1254;60798;-78
2024/01/08 00:23:53;;;;;;;;;;;;;;;-0.91;74.34;100837.20;106149;1257;72822;-83
2024/01/08 00:26:20;;;;;;;;;;;;;;;-1.14;73.01;100844.81;105876;1254;67389;-77
2024/01/08 00:28:55;;;;;;;;;;;;;;;-1.26;72.98;100854.65;105836;1254;72460;-78
2024/01/08 16:30:21;;;;;;;;;;;;;;;-2.42;55.60;101400.09;106533;1254;68467;-86
2024/01/08 16:33:01;;;;;;;;;;;;;;;-2.40;55.27;101401.23;106548;1254;73962;-86
2024/01/08 16:35:42;;;;;;;;;;;;;;;-2.25;55.36;101397.92;106254;1260;61582;-86
2024/01/08 16:38:11;;;;;;;;;;;;;;;-2.20;54.36;101404.19;106619;1254;60439;-79
2024/01/08 16:40:52;;;;;;;;;;;;;;;-2.17;54.29;101410.08;106970;1254;75334;-80
2024/01/08 16:43:33;;;;;;;;;;;;;;;-2.18;54.03;101416.63;106852;1254;69448;-79
2024/01/08 16:46:12;;;;;;;;;;;;;;;-2.26;54.05;101426.95;106392;1257;73559;-80
2024/01/08 16:48:46;;;;;;;;;;;;;;;-2.37;54.53;101426.10;106487;1253;61014;-85
2024/01/08 16:51:27;;;;;;;;;;;;;;;-2.35;54.95;101427.30;106498;1255;60429;-87
2024/01/08 16:54:10;;;;;;;;;;;;;;;-2.44;54.69;101438.25;106416;1254;76548;-79
2024/01/08 16:56:45;;;;;;;;;;;;;;;-2.58;54.43;101446.95;106636;1257;69866;-79
2024/01/08 16:59:19;;;;;;;;;;;;;;;-2.58;54.84;101452.11;106603;1254;73401;-79
2024/01/08 17:02:01;;;;;;;;;;;;;;;-2.60;55.12;101461.58;106468;1257;62606;-82
2024/01/08 17:04:41;;;;;;;;;;;;;;;-2.59;54.92;101462.80;106543;1253;60456;-87
2024/01/08 17:07:15;;;;;;;;;;;;;;;-2.57;54.96;101467.27;106509;1255;73822;-79
2024/01/08 17:09:49;;;;;;;;;;;;;;;-2.56;54.09;101471.23;106589;1254;71825;-86
2024/01/08 17:12:29;;;;;;;;;;;;;;;-2.62;53.65;101475.60;107808;1253;72937;-80
2024/01/08 17:15:12;;;;;;;;;;;;;;;-2.68;53.55;101482.14;107222;1255;62358;-79
2024/01/08 17:17:46;;;;;;;;;;;;;;;-2.82;53.89;101489.13;106402;1257;60367;-86
2024/01/08 17:20:21;;;;;;;;;;;;;;;-2.88;54.05;101487.64;106654;1256;74940;-87
2024/01/08 17:23:01;;;;;;;;;;;;;;;-2.92;54.04;101486.84;106359;1254;69629;-86
2024/01/08 17:25:43;;;;;;;;;;;;;;;-3.02;54.29;101495.42;106566;1258;72557;-86
2024/01/08 17:28:18;;;;;;;;;;;;;;;-3.11;54.28;101496.23;106658;1254;63383;-79
2024/01/08 17:30:53;;;;;;;;;;;;;;;-3.14;54.40;101492.98;106473;1255;60527;-79
2024/01/08 17:33:34;;;;;;;;;;;;;;;-3.12;54.47;101494.02;107071;1253;74267;-79
2024/01/08 17:36:36;;;;;;;;;;;;;;;-3.19;54.33;101500.67;106717;1254;70347;-79
2024/01/08 17:39:12;;;;;;;;;;;;;;;-3.34;54.33;101503.16;106556;1253;73615;-78
2024/01/08 17:41:46;;;;;;;;;;;;;;;-3.42;53.71;101512.52;106451;1257;61564;-79
2024/01/08 17:44:27;;;;;;;;;;;;;;;-3.52;54.15;101511.89;106658;1254;62149;-79
2024/01/08 17:47:07;;;;;;;;;;;;;;;-3.56;53.74;101516.84;106888;1254;75860;-78
2024/01/08 17:49:37;;;;;;;;;;;;;;;-3.56;53.29;101516.48;106533;1257;68263;-87
2024/01/08 17:52:17;;;;;;;;;;;;;;;-3.64;53.06;101525.52;106513;1254;74118;-86
2024/01/08 17:55:00;;;;;;;;;;;;;;;-3.71;53.55;101528.13;106472;1255;61165;-79
2024/01/08 17:57:43;;;;;;;;;;;;;;;-3.73;53.16;101527.86;106957;1253;60660;-87
2024/01/08 18:00:17;;;;;;;;;;;;;;;-3.78;52.83;101532.80;106444;1254;74369;-78
2024/01/08 18:02:52;;;;;;;;;;;;;;;-3.74;52.61;101528.27;106608;1257;69969;-78
2024/01/08 18:05:32;;;;;;;;;;;;;;;-3.81;52.48;101535.83;106491;1253;73904;-79
2024/01/08 18:08:12;;;;;;;;;;;;;;;-3.86;52.61;101535.30;106617;1254;63604;-79
2024/01/08 18:10:40;;;;;;;;;;;;;;;-4.02;52.66;101541.88;106868;1253;60632;-87
2024/01/08 18:13:20;;;;;;;;;;;;;;;-4.07;52.69;101547.91;106431;1254;75035;-87
2024/01/08 18:16:00;;;;;;;;;;;;;;;-4.17;52.83;101547.88;106288;1254;69949;-88
2024/01/08 18:18:40;;;;;;;;;;;;;;;-4.26;53.25;101554.19;106422;1254;73572;-87
2024/01/08 18:21:10;;;;;;;;;;;;;;;-4.24;53.13;101555.17;107104;1254;61137;-87
2024/01/08 18:23:50;;;;;;;;;;;;;;;-4.18;53.04;101559.75;106370;1257;60569;-78
2024/01/08 18:26:29;;;;;;;;;;;;;;;-4.24;53.25;101561.77;106493;1254;74488;-87
2024/01/08 18:29:04;;;;;;;;;;;;;;;-4.23;53.43;101565.75;106515;1253;70753;-88
2024/01/08 18:31:38;;;;;;;;;;;;;;;-4.34;53.81;101565.44;106874;1253;74359;-79
2024/01/08 18:34:18;;;;;;;;;;;;;;;-4.57;54.61;101570.16;106164;1257;62202;-79
2024/01/08 18:36:58;;;;;;;;;;;;;;;-4.59;54.45;101577.02;106670;1253;61185;-79
2024/01/08 18:39:32;;;;;;;;;;;;;;;-4.57;53.85;101579.34;106499;1254;75013;-86
2024/01/08 18:42:07;;;;;;;;;;;;;;;-4.51;53.93;101581.92;106407;1253;70632;-88
2024/01/08 18:44:46;;;;;;;;;;;;;;;-4.61;54.27;101583.37;106930;1253;73794;-88
2024/01/08 18:47:30;;;;;;;;;;;;;;;-4.71;54.25;101586.50;107025;1256;62888;-88
2024/01/08 18:50:05;;;;;;;;;;;;;;;-4.68;54.19;101586.46;106474;1254;60701;-87
2024/01/08 18:52:39;;;;;;;;;;;;;;;-4.64;54.41;101585.82;106358;1253;76168;-88
2024/01/08 18:55:19;;;;;;;;;;;;;;;-4.62;54.66;101588.30;106699;1253;70297;-79
2024/01/08 18:57:59;;;;;;;;;;;;;;;-4.64;54.98;101587.84;106452;1253;73898;-79
2024/01/08 19:00:36;;;;;;;;;;;;;;;-4.49;54.27;101598.02;106632;1257;62299;-79
2024/01/08 19:03:11;;;;;;;;;;;;;;;-4.53;54.07;101596.98;107357;1253;60574;-79
2024/01/08 19:05:51;;;;;;;;;;;;;;;-4.50;54.05;101597.65;106741;1254;76302;-77
2024/01/08 19:08:33;;;;;;;;;;;;;;;-4.56;54.33;101605.52;106530;1253;69525;-88
2024/01/08 19:11:07;;;;;;;;;;;;;;;-4.60;54.65;101610.35;106464;1254;73891;-79
2024/01/08 19:13:46;;;;;;;;;;;;;;;-4.65;54.60;101614.27;107078;1254;60869;-88
2024/01/08 19:16:26;;;;;;;;;;;;;;;-4.60;53.21;101623.19;106385;1253;271481;-88
2024/01/08 19:19:06;;;;;;;;;;;;;;;-4.57;53.48;101632.83;106742;1257;74784;-79
2024/01/08 19:21:38;;;;;;;;;;;;;;;-4.51;53.70;101639.69;106484;1253;68580;-79
2024/01/08 19:24:20;;;;;;;;;;;;;;;-4.52;53.34;101638.88;106481;1253;74914;-87
2024/01/08 19:27:00;;;;;;;;;;;;;;;-4.50;53.26;101640.52;107216;1253;63245;-87
2024/01/08 19:29:34;;;;;;;;;;;;;;;-4.58;53.48;101639.84;106797;1256;60437;-78
2024/01/08 19:32:08;;;;;;;;;;;;;;;-4.69;53.53;101648.74;106512;1256;75749;-78
2024/01/08 19:34:48;;;;;;;;;;;;;;;-4.80;53.76;101650.52;106782;1253;69687;-86
2024/01/08 19:37:28;;;;;;;;;;;;;;;-4.83;53.98;101648.15;107084;1252;71654;-86
2024/01/08 19:39:56;;;;;;;;;;;;;;;-4.82;53.70;101652.13;106519;1253;62722;-86
2024/01/08 19:42:37;;;;;;;;;;;;;;;-4.85;53.86;101657.20;106561;1254;60933;-86
2024/01/08 19:45:16;;;;;;;;;;;;;;;-4.70;53.80;101656.89;106456;1253;75212;-85
2024/01/08 19:47:56;;;;;;;;;;;;;;;-4.57;53.38;101659.30;106711;1257;68344;-78
2024/01/08 19:50:31;;;;;;;;;;;;;;;-4.59;53.33;101657.74;107173;1253;73750;-78
2024/01/08 19:53:05;;;;;;;;;;;;;;;-4.61;53.65;101664.14;106733;1256;63195;-87
2024/01/08 19:55:45;;;;;;;;;;;;;;;-4.64;53.47;101665.83;106562;1253;62964;-86
2024/01/08 19:58:25;;;;;;;;;;;;;;;-4.67;53.62;101668.97;106379;1254;74349;-86
2024/01/08 20:00:53;;;;;;;;;;;;;;;-4.67;53.33;101668.80;107104;1253;69772;-87
2024/01/08 20:03:33;;;;;;;;;;;;;;;-4.73;53.87;101672.23;107281;1253;71868;-86
2024/01/08 20:06:16;;;;;;;;;;;;;;;-4.60;53.66;101670.41;106480;1255;62267;-78
2024/01/08 20:08:56;;;;;;;;;;;;;;;-4.55;53.47;101669.42;106581;1253;59500;-78
2024/01/08 20:11:36;;;;;;;;;;;;;;;-4.66;53.57;101668.58;106677;1254;75031;-87
2024/01/08 20:14:16;;;;;;;;;;;;;;;-4.74;53.82;101670.42;106490;1253;69848;-78
2024/01/08 20:16:56;;;;;;;;;;;;;;;-4.97;54.26;101676.35;106625;1254;75190;-78
2024/01/08 20:19:37;;;;;;;;;;;;;;;-5.00;54.36;101682.48;106692;1253;60303;-86
2024/01/08 20:22:20;;;;;;;;;;;;;;;-4.93;54.30;101687.30;106919;1256;60470;-78
2024/01/08 20:25:01;;;;;;;;;;;;;;;-4.88;54.29;101689.86;106918;1253;74638;-78
2024/01/08 20:27:41;;;;;;;;;;;;;;;-4.55;53.62;101691.66;106886;1252;69997;-78
2024/01/08 20:30:21;;;;;;;;;;;;;;;-4.46;53.17;101695.00;106616;1253;75138;-86
2024/01/08 20:33:02;;;;;;;;;;;;;;;-4.51;53.04;101694.82;106492;1252;63144;-78
2024/01/08 20:35:42;;;;;;;;;;;;;;;-4.52;53.16;101697.77;106936;1253;60699;-78
2024/01/08 20:38:23;;;;;;;;;;;;;;;-4.54;53.17;101698.88;106589;1253;74784;-88
2024/01/08 20:41:03;;;;;;;;;;;;;;;-4.67;53.24;101696.77;107174;1252;67226;-88
2024/01/08 20:43:44;;;;;;;;;;;;;;;-4.75;53.60;101698.23;106336;1255;74277;-79
2024/01/08 20:46:26;;;;;;;;;;;;;;;-4.74;53.49;101696.16;106427;1253;60912;-88
2024/01/08 20:49:06;;;;;;;;;;;;;;;-4.78;53.46;101692.77;106624;1253;60339;-87
2024/01/08 20:51:46;;;;;;;;;;;;;;;-4.81;53.82;101688.65;106612;1257;72973;-79
2024/01/08 20:54:26;;;;;;;;;;;;;;;-4.74;53.70;101689.23;106528;1257;67736;-79
2024/01/08 20:57:06;;;;;;;;;;;;;;;-4.75;53.76;101686.14;106391;1253;72443;-88
2024/01/08 20:59:46;;;;;;;;;;;;;;;-4.83;53.89;101691.69;106372;1260;60615;-78
2024/01/08 21:02:26;;;;;;;;;;;;;;;-4.80;53.77;101693.38;106584;1257;60321;-87
2024/01/08 21:05:06;;;;;;;;;;;;;;;-4.78;53.48;101686.55;106897;1252;75328;-87
2024/01/08 21:07:46;;;;;;;;;;;;;;;-4.75;53.42;101693.25;106649;1253;69279;-87
2024/01/08 21:10:26;;;;;;;;;;;;;;;-4.76;53.28;101692.46;106616;1253;73763;-87
2024/01/08 21:13:06;;;;;;;;;;;;;;;-4.72;53.21;101696.52;106709;1252;61680;-87
2024/01/08 21:15:47;;;;;;;;;;;;;;;-4.72;53.24;101702.38;106656;1253;60290;-86
2024/01/08 21:18:26;;;;;;;;;;;;;;;-4.72;53.52;101700.23;106369;1253;73828;-78
2024/01/08 21:21:13;;;;;;;;;;;;;;;-4.58;53.18;101698.03;106922;1252;70662;-78
2024/01/08 21:23:53;;;;;;;;;;;;;;;-4.77;53.47;101697.83;106698;1252;73975;-88
2024/01/08 21:26:33;;;;;;;;;;;;;;;-4.83;53.77;101699.52;106738;1253;60508;-88
2024/01/08 21:29:14;;;;;;;;;;;;;;;-4.84;53.65;101700.53;106488;1253;60643;-87
2024/01/08 21:31:54;;;;;;;;;;;;;;;-4.83;53.61;101714.85;107605;1253;75626;-78
2024/01/08 21:34:34;;;;;;;;;;;;;;;-4.77;53.90;101713.89;106909;1253;68793;-88
2024/01/08 21:37:13;;;;;;;;;;;;;;;-4.66;53.70;101724.59;106712;1253;73838;-88
2024/01/08 21:39:53;;;;;;;;;;;;;;;-4.61;53.51;101725.48;106649;1253;61009;-86
2024/01/08 21:42:33;;;;;;;;;;;;;;;-4.65;53.33;101735.10;107014;1253;60532;-79
2024/01/08 21:45:14;;;;;;;;;;;;;;;-4.63;53.26;101736.70;106578;1253;74333;-87
2024/01/08 21:47:54;;;;;;;;;;;;;;;-4.62;52.96;101739.81;106800;1256;67110;-79
2024/01/08 21:50:35;;;;;;;;;;;;;;;-4.65;53.23;101742.04;106682;1257;71409;-78
2024/01/08 21:53:15;;;;;;;;;;;;;;;-4.64;53.34;101743.36;106961;1257;60384;-87
2024/01/08 21:55:56;;;;;;;;;;;;;;;-4.55;53.09;101741.23;106518;1252;60750;-88
2024/01/08 21:58:35;;;;;;;;;;;;;;;-4.44;52.71;101750.35;106652;1257;73863;-89
2024/01/08 22:01:15;;;;;;;;;;;;;;;-4.46;52.62;101749.30;106532;1253;67571;-87
2024/01/08 22:03:55;;;;;;;;;;;;;;;-4.51;52.69;101755.70;106607;1254;71688;-79
2024/01/08 22:06:35;;;;;;;;;;;;;;;-4.45;52.45;101751.31;107424;1253;60878;-88
2024/01/08 22:09:15;;;;;;;;;;;;;;;-4.43;52.52;101752.04;106604;1253;60333;-87
2024/01/08 22:11:55;;;;;;;;;;;;;;;-4.38;52.30;101757.20;107101;1257;72699;-87
2024/01/08 22:14:34;;;;;;;;;;;;;;;-4.41;52.16;101757.88;106401;1255;69195;-86
2024/01/08 22:17:15;;;;;;;;;;;;;;;-4.46;51.88;101762.30;106496;1256;71382;-86
2024/01/08 22:19:55;;;;;;;;;;;;;;;-4.58;52.30;101765.60;106941;1257;60340;-87
2024/01/08 22:22:35;;;;;;;;;;;;;;;-4.60;52.32;101769.15;106691;1255;61227;-87
2024/01/08 22:25:15;;;;;;;;;;;;;;;-4.54;52.40;101770.91;106326;1252;76325;-87
2024/01/08 22:27:55;;;;;;;;;;;;;;;-4.63;52.39;101776.02;106421;1253;68587;-86
2024/01/08 22:30:35;;;;;;;;;;;;;;;-4.62;52.31;101772.14;107096;1253;73077;-78
2024/01/08 22:33:15;;;;;;;;;;;;;;;-4.57;52.30;101776.71;107274;1253;60750;-78
2024/01/08 22:35:55;;;;;;;;;;;;;;;-4.61;52.16;101776.70;106528;1253;60405;-78
2024/01/08 22:38:36;;;;;;;;;;;;;;;-4.56;51.79;101776.95;106430;1253;73845;-86
2024/01/08 22:41:17;;;;;;;;;;;;;;;-4.51;51.68;101777.02;106341;1253;68707;-85
2024/01/08 22:43:57;;;;;;;;;;;;;;;-4.55;51.78;101778.39;106889;1254;71670;-86
2024/01/08 22:46:52;;;;;;;;;;;;;;;-4.52;51.76;101786.88;106557;1254;60460;-78
2024/01/08 22:49:32;;;;;;;;;;;;;;;-4.50;51.39;101791.63;106400;1252;60530;-77
2024/01/08 22:52:12;;;;;;;;;;;;;;;-4.60;51.43;101792.44;106232;1253;75347;-77
2024/01/08 22:54:52;;;;;;;;;;;;;;;-4.69;51.32;101797.60;106715;1253;68707;-78
2024/01/08 22:57:32;;;;;;;;;;;;;;;-4.68;51.24;101802.88;106291;1256;72674;-77
2024/01/08 23:00:12;;;;;;;;;;;;;;;-4.78;50.96;101811.02;106392;1255;61297;-77
2024/01/08 23:02:52;;;;;;;;;;;;;;;-4.90;51.28;101811.62;106435;1253;60490;-77
2024/01/08 23:05:33;;;;;;;;;;;;;;;-5.12;51.59;101819.02;106357;1253;72463;-77
2024/01/08 23:08:13;;;;;;;;;;;;;;;-5.37;51.82;101819.42;106405;1253;68575;-77
2024/01/08 23:10:53;;;;;;;;;;;;;;;-5.50;51.94;101816.73;106443;1257;72664;-86
2024/01/08 23:13:33;;;;;;;;;;;;;;;-5.55;51.89;101822.85;106395;1253;62266;-77
2024/01/08 23:16:13;;;;;;;;;;;;;;;-5.57;51.94;101821.75;106904;1253;60346;-86
2024/01/08 23:18:53;;;;;;;;;;;;;;;-5.67;51.67;101823.38;106611;1257;72881;-85
2024/01/08 23:21:32;;;;;;;;;;;;;;;-5.68;51.50;101824.66;106458;1253;68351;-87
2024/01/08 23:24:13;;;;;;;;;;;;;;;-5.61;51.15;101816.62;106515;1253;72676;-78
2024/01/08 23:26:56;;;;;;;;;;;;;;;-5.62;51.09;101815.44;106392;1254;62402;-86
2024/01/08 23:29:36;;;;;;;;;;;;;;;-5.64;51.05;101817.24;107915;1256;59851;-78
2024/01/08 23:32:16;;;;;;;;;;;;;;;-5.69;51.18;101824.05;106438;1253;72578;-87
2024/01/08 23:34:43;;;;;;;;;;;;;;;-5.58;50.99;101824.89;107586;1254;67084;-78
2024/01/08 23:37:24;;;;;;;;;;;;;;;-5.61;50.85;101830.50;106416;1253;71481;-78
2024/01/08 23:40:04;;;;;;;;;;;;;;;-5.87;51.21;101832.08;106465;1253;61171;-87
2024/01/08 23:42:44;;;;;;;;;;;;;;;-5.95;51.10;101839.79;106425;1253;60404;-87
2024/01/08 23:45:23;;;;;;;;;;;;;;;-6.01;51.16;101844.59;106394;1253;72690;-85
2024/01/08 23:48:03;;;;;;;;;;;;;;;-6.12;51.01;101846.40;106376;1253;67277;-87
2024/01/08 23:50:43;;;;;;;;;;;;;;;-6.24;51.21;101854.23;106324;1253;72688;-80
2024/01/08 23:53:24;;;;;;;;;;;;;;;-6.32;51.28;101859.55;106547;1254;63420;-79
2024/01/08 23:55:52;;;;;;;;;;;;;;;-6.41;51.08;101863.89;108203;1253;60476;-86
2024/01/08 23:58:32;;;;;;;;;;;;;;;-6.44;51.34;101863.27;106421;1253;72812;-79
